sensor_id;sensor_type;location;lat;lon;timestamp;temperature;humidity
70145;DHT22;57510;51.068;3.872;2022-11-14T00:02:18;5.30;99.90
70145;DHT22;57510;51.068;3.872;2022-11-14T00:04:45;5.30;99.90
70145;DHT22;57510;51.068;3.872;2022-11-14T00:07:10;5.30;99.90
70145;DHT22;57510;51.068;3.872;2022-11-14T00:09:38;5.30;99.90
70145;DHT22;57510;51.068;3.872;2022-11-14T00:12:10;5.30;99.90
70145;DHT22;57510;51.068;3.872;2022-11-14T00:14:36;5.20;99.90
70145;DHT22;57510;51.068;3.872;2022-11-14T00:17:04;5.30;99.90
70145;DHT22;57510;51.068;3.872;2022-11-14T00:19:30;5.20;99.90
70145;DHT22;57510;51.068;3.872;2022-11-14T00:21:55;5.20;99.90
70145;DHT22;57510;51.068;3.872;2022-11-14T00:24:26;5.20;99.90
70145;DHT22;57510;51.068;3.872;2022-11-14T00:26:52;5.10;99.90
70145;DHT22;57510;51.068;3.872;2022-11-14T00:29:17;5.10;99.90
70145;DHT22;57510;51.068;3.872;2022-11-14T00:31:43;5.10;99.90
70145;DHT22;57510;51.068;3.872;2022-11-14T00:34:11;5.10;99.90
70145;DHT22;57510;51.068;3.872;2022-11-14T00:36:37;5.00;99.90
70145;DHT22;57510;51.068;3.872;2022-11-14T00:39:02;5.10;99.90
70145;DHT22;57510;51.068;3.872;2022-11-14T00:41:28;5.00;99.90
70145;DHT22;57510;51.068;3.872;2022-11-14T00:43:53;4.90;99.90
70145;DHT22;57510;51.068;3.872;2022-11-14T00:46:19;4.90;99.90
70145;DHT22;57510;51.068;3.872;2022-11-14T00:48:49;4.90;99.90
70145;DHT22;57510;51.068;3.872;2022-11-14T00:51:14;4.90;99.90
70145;DHT22;57510;51.068;3.872;2022-11-14T00:53:40;4.90;99.90
70145;DHT22;57510;51.068;3.872;2022-11-14T00:56:06;4.90;99.90
70145;DHT22;57510;51.068;3.872;2022-11-14T00:58:31;4.90;99.90
70145;DHT22;57510;51.068;3.872;2022-11-14T01:00:57;4.90;99.90
70145;DHT22;57510;51.068;3.872;2022-11-14T01:03:22;4.90;99.90
70145;DHT22;57510;51.068;3.872;2022-11-14T01:05:49;4.90;99.90
70145;DHT22;57510;51.068;3.872;2022-11-14T01:08:15;4.90;99.90
70145;DHT22;57510;51.068;3.872;2022-11-14T01:10:48;4.90;99.90
70145;DHT22;57510;51.068;3.872;2022-11-14T01:13:16;4.90;99.90
70145;DHT22;57510;51.068;3.872;2022-11-14T01:15:43;4.90;99.90
70145;DHT22;57510;51.068;3.872;2022-11-14T01:18:20;4.90;99.90
70145;DHT22;57510;51.068;3.872;2022-11-14T01:20:46;4.90;99.90
70145;DHT22;57510;51.068;3.872;2022-11-14T01:23:13;4.90;99.90
70145;DHT22;57510;51.068;3.872;2022-11-14T01:25:40;4.90;99.90
70145;DHT22;57510;51.068;3.872;2022-11-14T01:28:11;4.80;99.90
70145;DHT22;57510;51.068;3.872;2022-11-14T01:30:37;4.80;99.90
70145;DHT22;57510;51.068;3.872;2022-11-14T01:33:03;4.90;99.90
70145;DHT22;57510;51.068;3.872;2022-11-14T01:35:29;4.80;99.90
70145;DHT22;57510;51.068;3.872;2022-11-14T01:37:54;4.80;99.90
70145;DHT22;57510;51.068;3.872;2022-11-14T01:40:23;4.80;99.90
70145;DHT22;57510;51.068;3.872;2022-11-14T01:48:57;5.00;99.90
70145;DHT22;57510;51.068;3.872;2022-11-14T01:50:58;5.10;99.90
70145;DHT22;57510;51.068;3.872;2022-11-14T01:53:24;5.10;99.90
70145;DHT22;57510;51.068;3.872;2022-11-14T01:55:50;5.10;99.90
70145;DHT22;57510;51.068;3.872;2022-11-14T01:58:16;5.10;99.90
70145;DHT22;57510;51.068;3.872;2022-11-14T02:00:45;5.00;99.90
70145;DHT22;57510;51.068;3.872;2022-11-14T02:03:14;5.00;99.90
70145;DHT22;57510;51.068;3.872;2022-11-14T02:05:39;4.90;99.90
70145;DHT22;57510;51.068;3.872;2022-11-14T02:08:05;4.90;99.90
70145;DHT22;57510;51.068;3.872;2022-11-14T02:10:34;5.00;99.90
70145;DHT22;57510;51.068;3.872;2022-11-14T02:12:59;4.90;99.90
70145;DHT22;57510;51.068;3.872;2022-11-14T02:15:25;4.90;99.90
70145;DHT22;57510;51.068;3.872;2022-11-14T02:17:52;5.00;99.90
70145;DHT22;57510;51.068;3.872;2022-11-14T02:20:19;5.00;99.90
70145;DHT22;57510;51.068;3.872;2022-11-14T02:22:45;5.10;99.90
70145;DHT22;57510;51.068;3.872;2022-11-14T02:25:10;5.10;99.90
70145;DHT22;57510;51.068;3.872;2022-11-14T02:27:37;5.10;99.90
70145;DHT22;57510;51.068;3.872;2022-11-14T02:30:04;5.10;99.90
70145;DHT22;57510;51.068;3.872;2022-11-14T02:32:32;5.00;99.90
70145;DHT22;57510;51.068;3.872;2022-11-14T02:34:58;5.00;99.90
70145;DHT22;57510;51.068;3.872;2022-11-14T02:37:23;5.00;99.90
70145;DHT22;57510;51.068;3.872;2022-11-14T02:39:53;5.00;99.90
70145;DHT22;57510;51.068;3.872;2022-11-14T02:42:21;5.00;99.90
70145;DHT22;57510;51.068;3.872;2022-11-14T02:44:47;4.90;99.90
70145;DHT22;57510;51.068;3.872;2022-11-14T02:47:12;4.90;99.90
70145;DHT22;57510;51.068;3.872;2022-11-14T02:49:38;4.90;99.90
70145;DHT22;57510;51.068;3.872;2022-11-14T02:52:03;4.90;99.90
70145;DHT22;57510;51.068;3.872;2022-11-14T02:54:31;4.80;99.90
70145;DHT22;57510;51.068;3.872;2022-11-14T02:56:57;4.80;99.90
70145;DHT22;57510;51.068;3.872;2022-11-14T02:59:22;4.80;99.90
70145;DHT22;57510;51.068;3.872;2022-11-14T03:01:48;4.80;99.90
70145;DHT22;57510;51.068;3.872;2022-11-14T03:04:16;4.80;99.90
70145;DHT22;57510;51.068;3.872;2022-11-14T03:06:41;4.80;99.90
70145;DHT22;57510;51.068;3.872;2022-11-14T03:09:07;4.80;99.90
70145;DHT22;57510;51.068;3.872;2022-11-14T03:11:32;4.80;99.90
70145;DHT22;57510;51.068;3.872;2022-11-14T03:13:58;4.80;99.90
70145;DHT22;57510;51.068;3.872;2022-11-14T03:16:24;4.80;99.90
70145;DHT22;57510;51.068;3.872;2022-11-14T03:18:50;4.80;99.90
70145;DHT22;57510;51.068;3.872;2022-11-14T03:21:18;4.70;99.90
70145;DHT22;57510;51.068;3.872;2022-11-14T03:23:44;4.70;99.90
70145;DHT22;57510;51.068;3.872;2022-11-14T03:26:10;4.70;99.90
70145;DHT22;57510;51.068;3.872;2022-11-14T03:28:35;4.70;99.90
70145;DHT22;57510;51.068;3.872;2022-11-14T03:31:01;4.60;99.90
70145;DHT22;57510;51.068;3.872;2022-11-14T03:33:27;4.60;99.90
70145;DHT22;57510;51.068;3.872;2022-11-14T03:35:53;4.70;99.90
70145;DHT22;57510;51.068;3.872;2022-11-14T03:38:19;4.70;99.90
70145;DHT22;57510;51.068;3.872;2022-11-14T03:40:47;4.70;99.90
70145;DHT22;57510;51.068;3.872;2022-11-14T03:43:16;4.60;99.90
70145;DHT22;57510;51.068;3.872;2022-11-14T03:45:44;4.60;99.90
70145;DHT22;57510;51.068;3.872;2022-11-14T03:48:16;4.50;99.90
70145;DHT22;57510;51.068;3.872;2022-11-14T03:50:47;4.40;99.90
70145;DHT22;57510;51.068;3.872;2022-11-14T03:53:15;4.40;99.90
70145;DHT22;57510;51.068;3.872;2022-11-14T03:55:44;4.40;99.90
70145;DHT22;57510;51.068;3.872;2022-11-14T03:58:12;4.30;99.90
70145;DHT22;57510;51.068;3.872;2022-11-14T04:00:37;4.30;99.90
70145;DHT22;57510;51.068;3.872;2022-11-14T04:03:03;4.20;99.90
70145;DHT22;57510;51.068;3.872;2022-11-14T04:05:29;4.20;99.90
70145;DHT22;57510;51.068;3.872;2022-11-14T04:07:57;4.10;99.90
70145;DHT22;57510;51.068;3.872;2022-11-14T04:10:23;4.10;99.90
70145;DHT22;57510;51.068;3.872;2022-11-14T04:12:49;4.10;99.90
70145;DHT22;57510;51.068;3.872;2022-11-14T04:15:17;4.10;99.90
70145;DHT22;57510;51.068;3.872;2022-11-14T04:17:44;4.10;99.90
70145;DHT22;57510;51.068;3.872;2022-11-14T04:20:10;4.10;99.90
70145;DHT22;57510;51.068;3.872;2022-11-14T04:22:37;4.10;99.90
70145;DHT22;57510;51.068;3.872;2022-11-14T04:25:05;4.10;99.90
70145;DHT22;57510;51.068;3.872;2022-11-14T04:27:31;4.20;99.90
70145;DHT22;57510;51.068;3.872;2022-11-14T04:29:59;4.30;99.90
70145;DHT22;57510;51.068;3.872;2022-11-14T04:32:28;4.30;99.90
70145;DHT22;57510;51.068;3.872;2022-11-14T04:34:53;4.30;99.90
70145;DHT22;57510;51.068;3.872;2022-11-14T04:37:19;4.30;99.90
70145;DHT22;57510;51.068;3.872;2022-11-14T04:39:44;4.40;99.90
70145;DHT22;57510;51.068;3.872;2022-11-14T04:42:13;4.40;99.90
70145;DHT22;57510;51.068;3.872;2022-11-14T04:44:46;4.40;99.90
70145;DHT22;57510;51.068;3.872;2022-11-14T04:47:11;4.40;99.90
70145;DHT22;57510;51.068;3.872;2022-11-14T04:49:39;4.40;99.90
70145;DHT22;57510;51.068;3.872;2022-11-14T04:52:05;4.40;99.90
70145;DHT22;57510;51.068;3.872;2022-11-14T04:54:33;4.30;99.90
70145;DHT22;57510;51.068;3.872;2022-11-14T04:57:01;4.30;99.90
70145;DHT22;57510;51.068;3.872;2022-11-14T04:59:27;4.30;99.90
70145;DHT22;57510;51.068;3.872;2022-11-14T05:01:55;4.20;99.90
70145;DHT22;57510;51.068;3.872;2022-11-14T05:04:20;4.20;99.90
70145;DHT22;57510;51.068;3.872;2022-11-14T05:06:46;4.20;99.90
70145;DHT22;57510;51.068;3.872;2022-11-14T05:09:12;4.20;99.90
70145;DHT22;57510;51.068;3.872;2022-11-14T05:11:37;4.30;99.90
70145;DHT22;57510;51.068;3.872;2022-11-14T05:14:03;4.30;99.90
70145;DHT22;57510;51.068;3.872;2022-11-14T05:16:31;4.30;99.90
70145;DHT22;57510;51.068;3.872;2022-11-14T05:18:58;4.30;99.90
70145;DHT22;57510;51.068;3.872;2022-11-14T05:21:24;4.30;99.90
70145;DHT22;57510;51.068;3.872;2022-11-14T05:23:49;4.30;99.90
70145;DHT22;57510;51.068;3.872;2022-11-14T05:26:16;4.20;99.90
70145;DHT22;57510;51.068;3.872;2022-11-14T05:28:42;4.20;99.90
70145;DHT22;57510;51.068;3.872;2022-11-14T05:31:09;4.20;99.90
70145;DHT22;57510;51.068;3.872;2022-11-14T05:33:37;4.20;99.90
70145;DHT22;57510;51.068;3.872;2022-11-14T05:36:06;4.20;99.90
70145;DHT22;57510;51.068;3.872;2022-11-14T05:38:32;4.20;99.90
70145;DHT22;57510;51.068;3.872;2022-11-14T05:41:06;4.20;99.90
70145;DHT22;57510;51.068;3.872;2022-11-14T05:43:39;4.20;99.90
70145;DHT22;57510;51.068;3.872;2022-11-14T05:46:06;4.30;99.90
70145;DHT22;57510;51.068;3.872;2022-11-14T05:48:32;4.30;99.90
70145;DHT22;57510;51.068;3.872;2022-11-14T05:50:59;4.30;99.90
70145;DHT22;57510;51.068;3.872;2022-11-14T05:53:25;4.30;99.90
70145;DHT22;57510;51.068;3.872;2022-11-14T05:55:51;4.40;99.90
70145;DHT22;57510;51.068;3.872;2022-11-14T05:58:19;4.40;99.90
70145;DHT22;57510;51.068;3.872;2022-11-14T06:00:45;4.40;99.90
70145;DHT22;57510;51.068;3.872;2022-11-14T06:03:11;4.40;99.90
70145;DHT22;57510;51.068;3.872;2022-11-14T06:05:37;4.30;99.90
70145;DHT22;57510;51.068;3.872;2022-11-14T06:08:03;4.30;99.90
70145;DHT22;57510;51.068;3.872;2022-11-14T06:10:29;4.30;99.90
70145;DHT22;57510;51.068;3.872;2022-11-14T06:12:55;4.40;99.90
70145;DHT22;57510;51.068;3.872;2022-11-14T06:15:22;4.40;99.90
70145;DHT22;57510;51.068;3.872;2022-11-14T06:17:50;4.30;99.90
70145;DHT22;57510;51.068;3.872;2022-11-14T06:20:16;4.30;99.90
70145;DHT22;57510;51.068;3.872;2022-11-14T06:22:42;4.20;99.90
70145;DHT22;57510;51.068;3.872;2022-11-14T06:25:07;4.10;99.90
70145;DHT22;57510;51.068;3.872;2022-11-14T06:27:36;4.00;99.90
70145;DHT22;57510;51.068;3.872;2022-11-14T06:30:02;4.00;99.90
70145;DHT22;57510;51.068;3.872;2022-11-14T06:32:28;4.00;99.90
70145;DHT22;57510;51.068;3.872;2022-11-14T06:34:54;4.00;99.90
70145;DHT22;57510;51.068;3.872;2022-11-14T06:37:19;4.00;99.90
70145;DHT22;57510;51.068;3.872;2022-11-14T06:39:45;4.00;99.90
70145;DHT22;57510;51.068;3.872;2022-11-14T06:42:10;4.00;99.90
70145;DHT22;57510;51.068;3.872;2022-11-14T06:44:36;4.00;99.90
70145;DHT22;57510;51.068;3.872;2022-11-14T06:47:02;4.00;99.90
70145;DHT22;57510;51.068;3.872;2022-11-14T06:49:27;4.00;99.90
70145;DHT22;57510;51.068;3.872;2022-11-14T06:51:53;3.90;99.90
70145;DHT22;57510;51.068;3.872;2022-11-14T06:54:19;3.90;99.90
70145;DHT22;57510;51.068;3.872;2022-11-14T06:56:46;3.80;99.90
70145;DHT22;57510;51.068;3.872;2022-11-14T06:59:12;3.80;99.90
70145;DHT22;57510;51.068;3.872;2022-11-14T07:01:38;3.80;99.90
70145;DHT22;57510;51.068;3.872;2022-11-14T07:04:04;3.70;99.90
70145;DHT22;57510;51.068;3.872;2022-11-14T07:06:29;3.80;99.90
70145;DHT22;57510;51.068;3.872;2022-11-14T07:08:56;3.70;99.90
70145;DHT22;57510;51.068;3.872;2022-11-14T07:11:22;3.70;99.90
70145;DHT22;57510;51.068;3.872;2022-11-14T07:13:50;3.70;99.90
70145;DHT22;57510;51.068;3.872;2022-11-14T07:16:16;3.70;99.90
70145;DHT22;57510;51.068;3.872;2022-11-14T07:18:41;3.70;99.90
70145;DHT22;57510;51.068;3.872;2022-11-14T07:21:07;3.70;99.90
70145;DHT22;57510;51.068;3.872;2022-11-14T07:23:33;3.80;99.90
70145;DHT22;57510;51.068;3.872;2022-11-14T07:26:00;3.80;99.90
70145;DHT22;57510;51.068;3.872;2022-11-14T07:28:26;3.80;99.90
70145;DHT22;57510;51.068;3.872;2022-11-14T07:30:53;3.80;99.90
70145;DHT22;57510;51.068;3.872;2022-11-14T07:33:19;3.90;99.90
70145;DHT22;57510;51.068;3.872;2022-11-14T07:35:45;3.90;99.90
70145;DHT22;57510;51.068;3.872;2022-11-14T07:38:31;3.90;99.90
70145;DHT22;57510;51.068;3.872;2022-11-14T07:41:08;3.90;99.90
70145;DHT22;57510;51.068;3.872;2022-11-14T07:43:33;4.00;99.90
70145;DHT22;57510;51.068;3.872;2022-11-14T07:46:21;4.00;99.90
70145;DHT22;57510;51.068;3.872;2022-11-14T07:48:48;4.10;99.90
70145;DHT22;57510;51.068;3.872;2022-11-14T07:51:16;4.10;99.90
70145;DHT22;57510;51.068;3.872;2022-11-14T07:53:44;4.10;99.90
70145;DHT22;57510;51.068;3.872;2022-11-14T07:56:10;4.20;99.90
70145;DHT22;57510;51.068;3.872;2022-11-14T07:58:37;4.20;99.90
70145;DHT22;57510;51.068;3.872;2022-11-14T08:01:05;4.30;99.90
70145;DHT22;57510;51.068;3.872;2022-11-14T08:03:33;4.40;99.90
70145;DHT22;57510;51.068;3.872;2022-11-14T08:06:03;4.40;99.90
70145;DHT22;57510;51.068;3.872;2022-11-14T08:08:29;4.50;99.90
70145;DHT22;57510;51.068;3.872;2022-11-14T08:10:56;4.60;99.90
70145;DHT22;57510;51.068;3.872;2022-11-14T08:13:22;4.60;99.90
70145;DHT22;57510;51.068;3.872;2022-11-14T08:15:48;4.70;99.90
70145;DHT22;57510;51.068;3.872;2022-11-14T08:18:13;4.80;99.90
70145;DHT22;57510;51.068;3.872;2022-11-14T08:20:39;4.80;99.90
70145;DHT22;57510;51.068;3.872;2022-11-14T08:23:05;4.90;99.90
70145;DHT22;57510;51.068;3.872;2022-11-14T08:25:34;5.00;99.90
70145;DHT22;57510;51.068;3.872;2022-11-14T08:27:59;5.00;99.90
70145;DHT22;57510;51.068;3.872;2022-11-14T08:30:25;5.10;99.90
70145;DHT22;57510;51.068;3.872;2022-11-14T08:32:50;5.20;99.90
70145;DHT22;57510;51.068;3.872;2022-11-14T08:35:16;5.20;99.90
70145;DHT22;57510;51.068;3.872;2022-11-14T08:37:42;5.20;99.90
70145;DHT22;57510;51.068;3.872;2022-11-14T08:40:07;5.30;99.90
70145;DHT22;57510;51.068;3.872;2022-11-14T08:42:35;5.40;99.90
70145;DHT22;57510;51.068;3.872;2022-11-14T08:45:01;5.50;99.90
70145;DHT22;57510;51.068;3.872;2022-11-14T08:47:26;5.50;99.90
70145;DHT22;57510;51.068;3.872;2022-11-14T08:49:52;5.60;99.90
70145;DHT22;57510;51.068;3.872;2022-11-14T08:52:20;5.60;99.90
70145;DHT22;57510;51.068;3.872;2022-11-14T08:54:48;5.70;99.90
70145;DHT22;57510;51.068;3.872;2022-11-14T08:57:15;5.70;99.90
70145;DHT22;57510;51.068;3.872;2022-11-14T08:59:41;5.80;99.90
70145;DHT22;57510;51.068;3.872;2022-11-14T09:02:10;5.90;99.90
70145;DHT22;57510;51.068;3.872;2022-11-14T09:04:41;6.00;99.90
70145;DHT22;57510;51.068;3.872;2022-11-14T09:07:07;6.00;99.90
70145;DHT22;57510;51.068;3.872;2022-11-14T09:09:33;6.10;99.90
70145;DHT22;57510;51.068;3.872;2022-11-14T09:11:58;6.20;99.90
70145;DHT22;57510;51.068;3.872;2022-11-14T09:14:24;6.30;99.90
70145;DHT22;57510;51.068;3.872;2022-11-14T09:16:52;6.30;99.90
70145;DHT22;57510;51.068;3.872;2022-11-14T09:19:17;6.40;99.90
70145;DHT22;57510;51.068;3.872;2022-11-14T09:21:43;6.40;99.90
70145;DHT22;57510;51.068;3.872;2022-11-14T09:24:08;6.50;99.90
70145;DHT22;57510;51.068;3.872;2022-11-14T09:26:34;6.50;99.90
70145;DHT22;57510;51.068;3.872;2022-11-14T09:29:02;6.60;99.90
70145;DHT22;57510;51.068;3.872;2022-11-14T09:31:29;6.60;99.90
70145;DHT22;57510;51.068;3.872;2022-11-14T09:33:57;6.60;99.90
70145;DHT22;57510;51.068;3.872;2022-11-14T09:36:23;6.70;99.90
70145;DHT22;57510;51.068;3.872;2022-11-14T09:38:51;6.80;99.90
70145;DHT22;57510;51.068;3.872;2022-11-14T09:46:43;7.00;99.90
70145;DHT22;57510;51.068;3.872;2022-11-14T09:49:34;7.00;99.90
70145;DHT22;57510;51.068;3.872;2022-11-14T09:52:43;7.10;99.90
70145;DHT22;57510;51.068;3.872;2022-11-14T09:54:45;7.20;99.90
70145;DHT22;57510;51.068;3.872;2022-11-14T09:57:16;7.20;99.90
70145;DHT22;57510;51.068;3.872;2022-11-14T09:59:42;7.30;99.90
70145;DHT22;57510;51.068;3.872;2022-11-14T10:07:20;7.60;99.90
70145;DHT22;57510;51.068;3.872;2022-11-14T10:12:39;7.60;99.90
70145;DHT22;57510;51.068;3.872;2022-11-14T10:15:10;7.60;99.90
70145;DHT22;57510;51.068;3.872;2022-11-14T10:28:37;7.80;99.90
70145;DHT22;57510;51.068;3.872;2022-11-14T10:31:17;7.80;99.90
70145;DHT22;57510;51.068;3.872;2022-11-14T10:33:56;7.90;99.90
70145;DHT22;57510;51.068;3.872;2022-11-14T10:36:39;7.90;99.90
70145;DHT22;57510;51.068;3.872;2022-11-14T10:41:47;8.00;99.90
70145;DHT22;57510;51.068;3.872;2022-11-14T10:44:16;8.20;99.90
70145;DHT22;57510;51.068;3.872;2022-11-14T10:46:46;8.10;99.90
70145;DHT22;57510;51.068;3.872;2022-11-14T10:49:21;8.10;99.90
70145;DHT22;57510;51.068;3.872;2022-11-14T10:51:57;8.10;99.90
70145;DHT22;57510;51.068;3.872;2022-11-14T10:54:35;8.20;99.90
70145;DHT22;57510;51.068;3.872;2022-11-14T10:57:10;8.20;99.90
70145;DHT22;57510;51.068;3.872;2022-11-14T10:59:37;8.30;99.90
70145;DHT22;57510;51.068;3.872;2022-11-14T11:02:03;8.30;99.90
70145;DHT22;57510;51.068;3.872;2022-11-14T11:04:33;8.30;99.90
70145;DHT22;57510;51.068;3.872;2022-11-14T11:09:34;8.20;99.90
70145;DHT22;57510;51.068;3.872;2022-11-14T11:12:20;8.20;99.90
70145;DHT22;57510;51.068;3.872;2022-11-14T11:14:47;8.20;99.90
70145;DHT22;57510;51.068;3.872;2022-11-14T11:19:42;8.10;99.90
70145;DHT22;57510;51.068;3.872;2022-11-14T11:22:27;8.00;99.90
70145;DHT22;57510;51.068;3.872;2022-11-14T11:24:53;7.90;99.90
70145;DHT22;57510;51.068;3.872;2022-11-14T11:27:23;7.90;99.90
70145;DHT22;57510;51.068;3.872;2022-11-14T11:30:11;7.90;99.90
70145;DHT22;57510;51.068;3.872;2022-11-14T11:32:41;7.80;99.90
70145;DHT22;57510;51.068;3.872;2022-11-14T11:35:10;7.60;99.90
70145;DHT22;57510;51.068;3.872;2022-11-14T11:40:29;7.60;99.90
70145;DHT22;57510;51.068;3.872;2022-11-14T11:45:20;7.60;99.90
70145;DHT22;57510;51.068;3.872;2022-11-14T11:50:30;7.60;99.90
70145;DHT22;57510;51.068;3.872;2022-11-14T11:55:23;7.80;99.90
70145;DHT22;57510;51.068;3.872;2022-11-14T12:00:27;7.70;99.90
70145;DHT22;57510;51.068;3.872;2022-11-14T12:02:53;7.90;99.90
70145;DHT22;57510;51.068;3.872;2022-11-14T12:08:03;8.10;99.90
70145;DHT22;57510;51.068;3.872;2022-11-14T12:10:35;8.20;99.80
70145;DHT22;57510;51.068;3.872;2022-11-14T12:15:31;8.30;99.10
70145;DHT22;57510;51.068;3.872;2022-11-14T12:20:38;8.20;99.30
70145;DHT22;57510;51.068;3.872;2022-11-14T12:23:28;8.30;99.50
70145;DHT22;57510;51.068;3.872;2022-11-14T12:25:58;8.40;99.10
70145;DHT22;57510;51.068;3.872;2022-11-14T12:31:12;8.40;98.80
70145;DHT22;57510;51.068;3.872;2022-11-14T12:33:39;8.40;99.00
70145;DHT22;57510;51.068;3.872;2022-11-14T12:36:08;8.40;99.00
70145;DHT22;57510;51.068;3.872;2022-11-14T12:38:49;8.20;99.30
70145;DHT22;57510;51.068;3.872;2022-11-14T12:41:26;8.20;99.40
70145;DHT22;57510;51.068;3.872;2022-11-14T12:43:53;8.20;99.10
70145;DHT22;57510;51.068;3.872;2022-11-14T12:52:03;8.10;99.10
70145;DHT22;57510;51.068;3.872;2022-11-14T12:57:07;8.30;99.10
70145;DHT22;57510;51.068;3.872;2022-11-14T12:59:55;8.30;98.80
70145;DHT22;57510;51.068;3.872;2022-11-14T13:12:59;7.80;99.60
70145;DHT22;57510;51.068;3.872;2022-11-14T13:15:47;7.90;99.80
70145;DHT22;57510;51.068;3.872;2022-11-14T13:18:32;7.80;99.90
70145;DHT22;57510;51.068;3.872;2022-11-14T13:21:24;7.90;99.90
70145;DHT22;57510;51.068;3.872;2022-11-14T13:24:09;8.00;99.80
70145;DHT22;57510;51.068;3.872;2022-11-14T13:26:53;8.10;99.70
70145;DHT22;57510;51.068;3.872;2022-11-14T13:32:08;7.90;99.90
70145;DHT22;57510;51.068;3.872;2022-11-14T13:34:36;7.70;99.90
70145;DHT22;57510;51.068;3.872;2022-11-14T13:37:14;7.80;99.90
70145;DHT22;57510;51.068;3.872;2022-11-14T13:40:19;7.70;99.90
70145;DHT22;57510;51.068;3.872;2022-11-14T13:50:45;7.80;99.90
70145;DHT22;57510;51.068;3.872;2022-11-14T13:53:13;7.80;99.90
70145;DHT22;57510;51.068;3.872;2022-11-14T13:55:58;7.90;99.90
70145;DHT22;57510;51.068;3.872;2022-11-14T13:58:29;7.80;99.90
70145;DHT22;57510;51.068;3.872;2022-11-14T14:05:56;7.70;99.90
70145;DHT22;57510;51.068;3.872;2022-11-14T14:11:23;7.70;99.90
70145;DHT22;57510;51.068;3.872;2022-11-14T14:16:39;7.70;99.90
70145;DHT22;57510;51.068;3.872;2022-11-14T14:19:19;7.60;99.90
70145;DHT22;57510;51.068;3.872;2022-11-14T14:24:29;7.60;99.90
70145;DHT22;57510;51.068;3.872;2022-11-14T14:29:39;7.60;99.90
70145;DHT22;57510;51.068;3.872;2022-11-14T14:32:10;7.60;99.90
70145;DHT22;57510;51.068;3.872;2022-11-14T14:34:41;7.60;99.90
70145;DHT22;57510;51.068;3.872;2022-11-14T14:39:41;7.40;99.90
70145;DHT22;57510;51.068;3.872;2022-11-14T14:42:21;7.50;99.90
70145;DHT22;57510;51.068;3.872;2022-11-14T14:44:48;7.60;99.90
70145;DHT22;57510;51.068;3.872;2022-11-14T14:49:42;7.50;99.90
70145;DHT22;57510;51.068;3.872;2022-11-14T14:54:54;7.40;99.90
70145;DHT22;57510;51.068;3.872;2022-11-14T14:57:21;7.40;99.90
70145;DHT22;57510;51.068;3.872;2022-11-14T14:59:49;7.30;99.90
70145;DHT22;57510;51.068;3.872;2022-11-14T15:02:25;7.20;99.90
70145;DHT22;57510;51.068;3.872;2022-11-14T15:04:51;7.20;99.90
70145;DHT22;57510;51.068;3.872;2022-11-14T15:07:23;7.20;99.90
70145;DHT22;57510;51.068;3.872;2022-11-14T15:09:51;7.10;99.90
70145;DHT22;57510;51.068;3.872;2022-11-14T15:12:19;7.20;99.90
70145;DHT22;57510;51.068;3.872;2022-11-14T15:14:47;7.20;99.90
70145;DHT22;57510;51.068;3.872;2022-11-14T15:17:21;7.30;99.90
70145;DHT22;57510;51.068;3.872;2022-11-14T15:19:46;7.10;99.90
70145;DHT22;57510;51.068;3.872;2022-11-14T15:24:39;7.30;99.90
70145;DHT22;57510;51.068;3.872;2022-11-14T15:27:10;7.40;99.90
70145;DHT22;57510;51.068;3.872;2022-11-14T15:29:38;7.40;99.90
70145;DHT22;57510;51.068;3.872;2022-11-14T15:32:19;7.40;99.90
70145;DHT22;57510;51.068;3.872;2022-11-14T15:37:29;7.50;99.90
70145;DHT22;57510;51.068;3.872;2022-11-14T15:40:13;7.50;99.90
70145;DHT22;57510;51.068;3.872;2022-11-14T15:42:39;7.50;99.90
70145;DHT22;57510;51.068;3.872;2022-11-14T15:45:23;7.50;99.90
70145;DHT22;57510;51.068;3.872;2022-11-14T15:47:58;7.60;99.90
70145;DHT22;57510;51.068;3.872;2022-11-14T15:52:57;7.60;99.90
70145;DHT22;57510;51.068;3.872;2022-11-14T15:55:23;7.50;99.90
70145;DHT22;57510;51.068;3.872;2022-11-14T15:57:50;7.60;99.90
70145;DHT22;57510;51.068;3.872;2022-11-14T16:00:16;7.60;99.90
70145;DHT22;57510;51.068;3.872;2022-11-14T16:02:46;7.60;99.90
70145;DHT22;57510;51.068;3.872;2022-11-14T16:05:13;7.60;99.90
70145;DHT22;57510;51.068;3.872;2022-11-14T16:07:42;7.60;99.90
70145;DHT22;57510;51.068;3.872;2022-11-14T16:10:17;7.60;99.90
70145;DHT22;57510;51.068;3.872;2022-11-14T16:12:45;7.60;99.90
70145;DHT22;57510;51.068;3.872;2022-11-14T16:15:11;7.60;99.90
70145;DHT22;57510;51.068;3.872;2022-11-14T16:17:40;7.60;99.90
70145;DHT22;57510;51.068;3.872;2022-11-14T16:20:06;7.60;99.90
70145;DHT22;57510;51.068;3.872;2022-11-14T16:22:37;7.60;99.90
70145;DHT22;57510;51.068;3.872;2022-11-14T16:25:03;7.70;99.90
70145;DHT22;57510;51.068;3.872;2022-11-14T16:27:29;7.80;99.90
70145;DHT22;57510;51.068;3.872;2022-11-14T16:29:54;7.80;99.90
70145;DHT22;57510;51.068;3.872;2022-11-14T16:32:20;7.70;99.90
70145;DHT22;57510;51.068;3.872;2022-11-14T16:34:47;7.70;99.90
70145;DHT22;57510;51.068;3.872;2022-11-14T16:37:15;7.80;99.90
70145;DHT22;57510;51.068;3.872;2022-11-14T16:39:41;7.80;99.90
70145;DHT22;57510;51.068;3.872;2022-11-14T16:42:07;7.80;99.90
70145;DHT22;57510;51.068;3.872;2022-11-14T16:44:34;7.80;99.90
70145;DHT22;57510;51.068;3.872;2022-11-14T16:47:02;7.80;99.90
70145;DHT22;57510;51.068;3.872;2022-11-14T16:49:28;7.80;99.90
70145;DHT22;57510;51.068;3.872;2022-11-14T16:51:54;7.90;99.90
70145;DHT22;57510;51.068;3.872;2022-11-14T16:54:22;7.80;99.90
70145;DHT22;57510;51.068;3.872;2022-11-14T16:56:48;7.80;99.90
70145;DHT22;57510;51.068;3.872;2022-11-14T16:59:14;7.80;99.90
70145;DHT22;57510;51.068;3.872;2022-11-14T17:01:42;7.70;99.90
70145;DHT22;57510;51.068;3.872;2022-11-14T17:04:09;7.70;99.90
70145;DHT22;57510;51.068;3.872;2022-11-14T17:06:34;7.70;99.90
70145;DHT22;57510;51.068;3.872;2022-11-14T17:09:00;7.70;99.90
70145;DHT22;57510;51.068;3.872;2022-11-14T17:11:30;7.60;99.90
70145;DHT22;57510;51.068;3.872;2022-11-14T17:13:56;7.70;99.90
70145;DHT22;57510;51.068;3.872;2022-11-14T17:16:22;7.70;99.90
70145;DHT22;57510;51.068;3.872;2022-11-14T17:18:49;7.70;99.90
70145;DHT22;57510;51.068;3.872;2022-11-14T17:21:18;7.80;99.90
70145;DHT22;57510;51.068;3.872;2022-11-14T17:23:44;7.80;99.90
70145;DHT22;57510;51.068;3.872;2022-11-14T17:26:11;7.70;99.90
70145;DHT22;57510;51.068;3.872;2022-11-14T17:28:37;7.70;99.90
70145;DHT22;57510;51.068;3.872;2022-11-14T17:31:07;7.70;99.90
70145;DHT22;57510;51.068;3.872;2022-11-14T17:33:33;7.80;99.90
70145;DHT22;57510;51.068;3.872;2022-11-14T17:36:06;7.90;99.90
70145;DHT22;57510;51.068;3.872;2022-11-14T17:38:33;7.90;99.90
70145;DHT22;57510;51.068;3.872;2022-11-14T17:40:59;8.00;99.90
70145;DHT22;57510;51.068;3.872;2022-11-14T17:43:26;8.00;99.90
70145;DHT22;57510;51.068;3.872;2022-11-14T17:45:53;8.10;99.90
70145;DHT22;57510;51.068;3.872;2022-11-14T17:48:19;8.10;99.90
70145;DHT22;57510;51.068;3.872;2022-11-14T17:50:45;8.10;99.90
70145;DHT22;57510;51.068;3.872;2022-11-14T17:53:10;8.00;99.90
70145;DHT22;57510;51.068;3.872;2022-11-14T17:55:39;8.00;99.90